UKON/NLV METAR and TAF weather

Enter ICAO airport designator
Station Type Date Time Source
UKON METAR 2020/01/22 15:00 UTC NOAA

UKON 221500Z 29006MPS CAVOK 08/M07 Q1012 R22/090075 NOSIG


Station Type Date Time Source
UKON Decoded METAR 2020/01/22 15:00 UTC NOAA

Mykolaiv, Ukraine (UKON) 47-03-29N 031-55-15E
Jan 22, 2020 - 10:00 AM EST / 2020.01.22 1500 UTC
Wind: from the WNW (290 degrees) at 13 MPH (12 KT):0
Visibility: greater than 7 mile(s):0
Temperature: 46 F (8 C)
Dew Point: 19 F (-7 C)
Relative Humidity: 33%
Pressure (altimeter): 29.88 in. Hg (1012 hPa)
ob: UKON 221500Z 29006MPS CAVOK 08/M07 Q1012 R22/090075 NOSIG
cycle: 15

Station Type Date Time Source
UKON TAF 2018/11/06 15:06 UTC NOAA

TAF
AMD TAF
AMD UKON 061502Z 0615/0724 CNL

Example: see airport list